sensor_id;sensor_type;location;lat;lon;timestamp;P1;durP1;ratioP1;P2;durP2;ratioP2
75486;SDS011;65009;44.762;21.516;2022-11-13T00:00:04;107.17;;;58.97;;
75486;SDS011;65009;44.762;21.516;2022-11-13T00:02:32;94.60;;;55.10;;
75486;SDS011;65009;44.762;21.516;2022-11-13T00:04:58;101.83;;;58.93;;
75486;SDS011;65009;44.762;21.516;2022-11-13T00:07:24;90.17;;;52.70;;
75486;SDS011;65009;44.762;21.516;2022-11-13T00:09:50;93.47;;;53.40;;
75486;SDS011;65009;44.762;21.516;2022-11-13T00:12:17;83.93;;;47.50;;
75486;SDS011;65009;44.762;21.516;2022-11-13T00:14:43;99.43;;;55.37;;
75486;SDS011;65009;44.762;21.516;2022-11-13T00:17:09;101.17;;;55.63;;
75486;SDS011;65009;44.762;21.516;2022-11-13T00:19:35;101.10;;;58.97;;
75486;SDS011;65009;44.762;21.516;2022-11-13T00:22:01;172.23;;;92.93;;
75486;SDS011;65009;44.762;21.516;2022-11-13T00:24:27;110.67;;;60.50;;
75486;SDS011;65009;44.762;21.516;2022-11-13T00:26:53;108.67;;;61.80;;
75486;SDS011;65009;44.762;21.516;2022-11-13T00:29:19;135.67;;;72.07;;
75486;SDS011;65009;44.762;21.516;2022-11-13T00:31:45;138.40;;;70.83;;
75486;SDS011;65009;44.762;21.516;2022-11-13T00:34:12;108.40;;;56.97;;
75486;SDS011;65009;44.762;21.516;2022-11-13T00:36:38;107.03;;;55.67;;
75486;SDS011;65009;44.762;21.516;2022-11-13T00:39:04;88.80;;;48.60;;
75486;SDS011;65009;44.762;21.516;2022-11-13T00:41:30;77.93;;;42.27;;
75486;SDS011;65009;44.762;21.516;2022-11-13T00:43:56;100.57;;;53.77;;
75486;SDS011;65009;44.762;21.516;2022-11-13T00:46:22;70.47;;;42.93;;
75486;SDS011;65009;44.762;21.516;2022-11-13T00:48:48;43.10;;;28.67;;
75486;SDS011;65009;44.762;21.516;2022-11-13T00:51:14;57.50;;;35.10;;
75486;SDS011;65009;44.762;21.516;2022-11-13T00:53:40;50.13;;;29.07;;
75486;SDS011;65009;44.762;21.516;2022-11-13T00:56:07;55.80;;;31.67;;
75486;SDS011;65009;44.762;21.516;2022-11-13T00:58:33;56.63;;;33.67;;
75486;SDS011;65009;44.762;21.516;2022-11-13T01:01:07;50.93;;;31.10;;
75486;SDS011;65009;44.762;21.516;2022-11-13T01:03:33;71.10;;;34.60;;
75486;SDS011;65009;44.762;21.516;2022-11-13T01:05:59;34.97;;;21.50;;
75486;SDS011;65009;44.762;21.516;2022-11-13T01:08:25;36.30;;;22.57;;
75486;SDS011;65009;44.762;21.516;2022-11-13T01:10:51;29.40;;;18.53;;
75486;SDS011;65009;44.762;21.516;2022-11-13T01:13:17;22.30;;;15.40;;
75486;SDS011;65009;44.762;21.516;2022-11-13T01:15:44;34.77;;;20.07;;
75486;SDS011;65009;44.762;21.516;2022-11-13T01:18:10;35.23;;;20.90;;
75486;SDS011;65009;44.762;21.516;2022-11-13T01:20:36;39.93;;;21.53;;
75486;SDS011;65009;44.762;21.516;2022-11-13T01:23:02;34.53;;;22.73;;
75486;SDS011;65009;44.762;21.516;2022-11-13T01:25:29;36.77;;;22.90;;
75486;SDS011;65009;44.762;21.516;2022-11-13T01:27:55;38.03;;;23.40;;
75486;SDS011;65009;44.762;21.516;2022-11-13T01:30:21;48.70;;;29.23;;
75486;SDS011;65009;44.762;21.516;2022-11-13T01:32:48;41.00;;;24.80;;
75486;SDS011;65009;44.762;21.516;2022-11-13T01:35:14;44.40;;;26.30;;
75486;SDS011;65009;44.762;21.516;2022-11-13T01:37:40;46.73;;;28.77;;
75486;SDS011;65009;44.762;21.516;2022-11-13T01:40:06;34.17;;;21.40;;
75486;SDS011;65009;44.762;21.516;2022-11-13T01:42:32;30.43;;;21.63;;
75486;SDS011;65009;44.762;21.516;2022-11-13T01:44:59;34.90;;;21.20;;
75486;SDS011;65009;44.762;21.516;2022-11-13T01:47:28;29.97;;;18.63;;
75486;SDS011;65009;44.762;21.516;2022-11-13T01:49:56;28.33;;;17.57;;
75486;SDS011;65009;44.762;21.516;2022-11-13T01:54:50;22.03;;;15.33;;
75486;SDS011;65009;44.762;21.516;2022-11-13T01:57:17;20.00;;;13.73;;
75486;SDS011;65009;44.762;21.516;2022-11-13T01:59:47;21.77;;;12.50;;
75486;SDS011;65009;44.762;21.516;2022-11-13T02:02:14;18.67;;;12.57;;
75486;SDS011;65009;44.762;21.516;2022-11-13T02:04:40;16.67;;;11.80;;
75486;SDS011;65009;44.762;21.516;2022-11-13T02:07:07;16.77;;;10.90;;
75486;SDS011;65009;44.762;21.516;2022-11-13T02:09:38;16.13;;;10.67;;
75486;SDS011;65009;44.762;21.516;2022-11-13T02:12:06;15.93;;;9.95;;
75486;SDS011;65009;44.762;21.516;2022-11-13T02:14:33;15.60;;;10.03;;
75486;SDS011;65009;44.762;21.516;2022-11-13T02:17:02;14.03;;;9.57;;
75486;SDS011;65009;44.762;21.516;2022-11-13T02:19:36;16.67;;;9.90;;
75486;SDS011;65009;44.762;21.516;2022-11-13T02:24:42;13.37;;;9.47;;
75486;SDS011;65009;44.762;21.516;2022-11-13T02:27:17;15.38;;;10.52;;
75486;SDS011;65009;44.762;21.516;2022-11-13T02:29:44;14.83;;;10.47;;
75486;SDS011;65009;44.762;21.516;2022-11-13T02:32:11;16.93;;;11.17;;
75486;SDS011;65009;44.762;21.516;2022-11-13T02:34:37;19.17;;;11.73;;
75486;SDS011;65009;44.762;21.516;2022-11-13T02:37:03;17.53;;;11.40;;
75486;SDS011;65009;44.762;21.516;2022-11-13T02:39:29;17.13;;;11.47;;
75486;SDS011;65009;44.762;21.516;2022-11-13T02:41:55;18.77;;;11.37;;
75486;SDS011;65009;44.762;21.516;2022-11-13T02:44:21;18.10;;;11.53;;
75486;SDS011;65009;44.762;21.516;2022-11-13T02:46:47;17.90;;;10.87;;
75486;SDS011;65009;44.762;21.516;2022-11-13T02:49:13;17.83;;;12.10;;
75486;SDS011;65009;44.762;21.516;2022-11-13T02:51:40;17.57;;;12.23;;
75486;SDS011;65009;44.762;21.516;2022-11-13T02:54:06;23.30;;;13.60;;
75486;SDS011;65009;44.762;21.516;2022-11-13T02:56:32;20.77;;;13.60;;
75486;SDS011;65009;44.762;21.516;2022-11-13T02:58:58;20.47;;;13.93;;
75486;SDS011;65009;44.762;21.516;2022-11-13T03:01:24;20.13;;;14.13;;
75486;SDS011;65009;44.762;21.516;2022-11-13T03:03:50;21.60;;;14.43;;
75486;SDS011;65009;44.762;21.516;2022-11-13T03:06:16;25.37;;;15.60;;
75486;SDS011;65009;44.762;21.516;2022-11-13T03:08:42;24.50;;;16.03;;
75486;SDS011;65009;44.762;21.516;2022-11-13T03:11:09;30.60;;;20.13;;
75486;SDS011;65009;44.762;21.516;2022-11-13T03:13:36;33.07;;;22.53;;
75486;SDS011;65009;44.762;21.516;2022-11-13T03:16:09;33.57;;;21.80;;
75486;SDS011;65009;44.762;21.516;2022-11-13T03:18:35;33.37;;;20.53;;
75486;SDS011;65009;44.762;21.516;2022-11-13T03:21:05;30.50;;;19.23;;
75486;SDS011;65009;44.762;21.516;2022-11-13T03:23:32;25.20;;;16.63;;
75486;SDS011;65009;44.762;21.516;2022-11-13T03:26:05;23.60;;;15.77;;
75486;SDS011;65009;44.762;21.516;2022-11-13T03:28:32;27.10;;;15.23;;
75486;SDS011;65009;44.762;21.516;2022-11-13T03:30:59;24.30;;;17.53;;
75486;SDS011;65009;44.762;21.516;2022-11-13T03:33:25;32.63;;;23.37;;
75486;SDS011;65009;44.762;21.516;2022-11-13T03:35:51;32.80;;;22.80;;
75486;SDS011;65009;44.762;21.516;2022-11-13T03:38:17;29.97;;;21.23;;
75486;SDS011;65009;44.762;21.516;2022-11-13T03:40:43;31.53;;;21.53;;
75486;SDS011;65009;44.762;21.516;2022-11-13T03:43:09;31.57;;;22.33;;
75486;SDS011;65009;44.762;21.516;2022-11-13T03:45:36;31.67;;;21.40;;
75486;SDS011;65009;44.762;21.516;2022-11-13T03:48:02;30.33;;;21.30;;
75486;SDS011;65009;44.762;21.516;2022-11-13T03:50:29;28.17;;;17.57;;
75486;SDS011;65009;44.762;21.516;2022-11-13T03:52:55;27.10;;;18.47;;
75486;SDS011;65009;44.762;21.516;2022-11-13T03:55:21;31.83;;;18.97;;
75486;SDS011;65009;44.762;21.516;2022-11-13T03:57:47;26.20;;;18.77;;
75486;SDS011;65009;44.762;21.516;2022-11-13T04:00:13;31.83;;;21.03;;
75486;SDS011;65009;44.762;21.516;2022-11-13T04:02:40;38.43;;;24.63;;
75486;SDS011;65009;44.762;21.516;2022-11-13T04:05:06;34.63;;;23.13;;
75486;SDS011;65009;44.762;21.516;2022-11-13T04:07:33;28.83;;;20.93;;
75486;SDS011;65009;44.762;21.516;2022-11-13T04:09:59;25.13;;;17.70;;
75486;SDS011;65009;44.762;21.516;2022-11-13T04:12:25;34.20;;;24.47;;
75486;SDS011;65009;44.762;21.516;2022-11-13T04:14:51;31.37;;;21.67;;
75486;SDS011;65009;44.762;21.516;2022-11-13T04:17:18;24.87;;;16.60;;
75486;SDS011;65009;44.762;21.516;2022-11-13T04:19:44;29.60;;;21.07;;
75486;SDS011;65009;44.762;21.516;2022-11-13T04:22:10;29.93;;;21.43;;
75486;SDS011;65009;44.762;21.516;2022-11-13T04:24:36;31.27;;;21.07;;
75486;SDS011;65009;44.762;21.516;2022-11-13T04:27:02;28.43;;;20.67;;
75486;SDS011;65009;44.762;21.516;2022-11-13T04:29:28;27.13;;;20.40;;
75486;SDS011;65009;44.762;21.516;2022-11-13T04:31:55;34.30;;;22.47;;
75486;SDS011;65009;44.762;21.516;2022-11-13T04:34:21;28.37;;;20.73;;
75486;SDS011;65009;44.762;21.516;2022-11-13T04:36:47;49.70;;;30.27;;
75486;SDS011;65009;44.762;21.516;2022-11-13T04:39:16;45.53;;;26.13;;
75486;SDS011;65009;44.762;21.516;2022-11-13T04:41:43;44.53;;;26.53;;
75486;SDS011;65009;44.762;21.516;2022-11-13T04:44:27;42.53;;;24.80;;
75486;SDS011;65009;44.762;21.516;2022-11-13T04:46:53;37.33;;;22.27;;
75486;SDS011;65009;44.762;21.516;2022-11-13T04:49:20;32.37;;;20.87;;
75486;SDS011;65009;44.762;21.516;2022-11-13T04:51:46;29.33;;;18.23;;
75486;SDS011;65009;44.762;21.516;2022-11-13T04:54:12;25.53;;;15.03;;
75486;SDS011;65009;44.762;21.516;2022-11-13T04:56:38;20.03;;;13.80;;
75486;SDS011;65009;44.762;21.516;2022-11-13T04:59:04;22.27;;;14.97;;
75486;SDS011;65009;44.762;21.516;2022-11-13T05:01:30;23.20;;;14.43;;
75486;SDS011;65009;44.762;21.516;2022-11-13T05:03:56;20.87;;;14.07;;
75486;SDS011;65009;44.762;21.516;2022-11-13T05:06:23;30.33;;;15.83;;
75486;SDS011;65009;44.762;21.516;2022-11-13T05:08:49;24.00;;;13.50;;
75486;SDS011;65009;44.762;21.516;2022-11-13T05:11:15;21.67;;;14.37;;
75486;SDS011;65009;44.762;21.516;2022-11-13T05:13:42;39.53;;;20.57;;
75486;SDS011;65009;44.762;21.516;2022-11-13T05:16:09;46.20;;;25.43;;
75486;SDS011;65009;44.762;21.516;2022-11-13T05:18:35;40.97;;;24.27;;
75486;SDS011;65009;44.762;21.516;2022-11-13T05:21:02;39.47;;;23.57;;
75486;SDS011;65009;44.762;21.516;2022-11-13T05:23:29;38.80;;;24.03;;
75486;SDS011;65009;44.762;21.516;2022-11-13T05:26:05;38.97;;;21.87;;
75486;SDS011;65009;44.762;21.516;2022-11-13T05:28:32;29.77;;;19.63;;
75486;SDS011;65009;44.762;21.516;2022-11-13T05:31:02;29.13;;;17.43;;
75486;SDS011;65009;44.762;21.516;2022-11-13T05:33:29;30.07;;;16.43;;
75486;SDS011;65009;44.762;21.516;2022-11-13T05:35:59;25.83;;;17.63;;
75486;SDS011;65009;44.762;21.516;2022-11-13T05:38:26;38.33;;;22.87;;
75486;SDS011;65009;44.762;21.516;2022-11-13T05:40:52;46.60;;;28.97;;
75486;SDS011;65009;44.762;21.516;2022-11-13T05:43:18;35.40;;;24.17;;
75486;SDS011;65009;44.762;21.516;2022-11-13T05:45:44;43.40;;;28.67;;
75486;SDS011;65009;44.762;21.516;2022-11-13T05:48:11;46.77;;;29.57;;
75486;SDS011;65009;44.762;21.516;2022-11-13T05:50:37;53.80;;;33.53;;
75486;SDS011;65009;44.762;21.516;2022-11-13T05:53:03;60.23;;;37.23;;
75486;SDS011;65009;44.762;21.516;2022-11-13T05:55:29;49.17;;;34.90;;
75486;SDS011;65009;44.762;21.516;2022-11-13T05:57:57;242.30;;;87.13;;
75486;SDS011;65009;44.762;21.516;2022-11-13T06:00:23;61.87;;;33.97;;
75486;SDS011;65009;44.762;21.516;2022-11-13T06:02:49;40.80;;;26.73;;
75486;SDS011;65009;44.762;21.516;2022-11-13T06:05:15;28.83;;;18.90;;
75486;SDS011;65009;44.762;21.516;2022-11-13T06:07:41;75.47;;;22.67;;
75486;SDS011;65009;44.762;21.516;2022-11-13T06:10:08;197.17;;;29.67;;
75486;SDS011;65009;44.762;21.516;2022-11-13T06:12:34;171.00;;;30.10;;
75486;SDS011;65009;44.762;21.516;2022-11-13T06:15:00;80.80;;;31.87;;
75486;SDS011;65009;44.762;21.516;2022-11-13T06:17:26;58.57;;;36.30;;
75486;SDS011;65009;44.762;21.516;2022-11-13T06:19:52;56.43;;;36.37;;
75486;SDS011;65009;44.762;21.516;2022-11-13T06:22:18;54.20;;;34.37;;
75486;SDS011;65009;44.762;21.516;2022-11-13T06:24:45;44.93;;;28.60;;
75486;SDS011;65009;44.762;21.516;2022-11-13T06:27:11;33.77;;;21.07;;
75486;SDS011;65009;44.762;21.516;2022-11-13T06:29:37;31.53;;;20.93;;
75486;SDS011;65009;44.762;21.516;2022-11-13T06:32:03;34.23;;;20.60;;
75486;SDS011;65009;44.762;21.516;2022-11-13T06:34:29;28.60;;;20.03;;
75486;SDS011;65009;44.762;21.516;2022-11-13T06:36:55;29.47;;;18.53;;
75486;SDS011;65009;44.762;21.516;2022-11-13T06:39:21;26.50;;;16.70;;
75486;SDS011;65009;44.762;21.516;2022-11-13T06:41:47;26.30;;;16.77;;
75486;SDS011;65009;44.762;21.516;2022-11-13T06:44:14;30.57;;;17.43;;
75486;SDS011;65009;44.762;21.516;2022-11-13T06:46:40;28.80;;;16.70;;
75486;SDS011;65009;44.762;21.516;2022-11-13T06:49:06;26.10;;;17.60;;
75486;SDS011;65009;44.762;21.516;2022-11-13T06:51:32;25.38;;;17.35;;
75486;SDS011;65009;44.762;21.516;2022-11-13T06:53:59;26.83;;;16.27;;
75486;SDS011;65009;44.762;21.516;2022-11-13T06:56:25;24.88;;;15.93;;
75486;SDS011;65009;44.762;21.516;2022-11-13T06:58:52;65.80;;;42.58;;
75486;SDS011;65009;44.762;21.516;2022-11-13T07:01:20;47.40;;;28.95;;
75486;SDS011;65009;44.762;21.516;2022-11-13T07:03:46;28.75;;;19.42;;
75486;SDS011;65009;44.762;21.516;2022-11-13T07:06:14;38.22;;;24.77;;
75486;SDS011;65009;44.762;21.516;2022-11-13T07:08:41;26.45;;;18.65;;
75486;SDS011;65009;44.762;21.516;2022-11-13T07:11:11;31.95;;;18.17;;
75486;SDS011;65009;44.762;21.516;2022-11-13T07:13:37;27.77;;;18.38;;
75486;SDS011;65009;44.762;21.516;2022-11-13T07:16:04;21.38;;;15.18;;
75486;SDS011;65009;44.762;21.516;2022-11-13T07:18:31;17.85;;;13.18;;
75486;SDS011;65009;44.762;21.516;2022-11-13T07:20:57;21.67;;;15.20;;
75486;SDS011;65009;44.762;21.516;2022-11-13T07:23:23;24.25;;;18.08;;
75486;SDS011;65009;44.762;21.516;2022-11-13T07:25:51;27.15;;;18.17;;
75486;SDS011;65009;44.762;21.516;2022-11-13T07:28:19;22.35;;;14.57;;
75486;SDS011;65009;44.762;21.516;2022-11-13T07:30:45;20.35;;;13.48;;
75486;SDS011;65009;44.762;21.516;2022-11-13T07:33:11;16.35;;;12.48;;
75486;SDS011;65009;44.762;21.516;2022-11-13T07:35:37;13.40;;;9.05;;
75486;SDS011;65009;44.762;21.516;2022-11-13T07:38:04;10.82;;;8.70;;
75486;SDS011;65009;44.762;21.516;2022-11-13T07:40:30;17.63;;;9.30;;
75486;SDS011;65009;44.762;21.516;2022-11-13T07:43:00;13.13;;;9.70;;
75486;SDS011;65009;44.762;21.516;2022-11-13T07:45:27;11.93;;;8.43;;
75486;SDS011;65009;44.762;21.516;2022-11-13T07:47:57;15.40;;;10.60;;
75486;SDS011;65009;44.762;21.516;2022-11-13T07:50:24;15.40;;;9.38;;
75486;SDS011;65009;44.762;21.516;2022-11-13T07:52:53;14.85;;;9.48;;
75486;SDS011;65009;44.762;21.516;2022-11-13T07:55:20;9.35;;;7.72;;
75486;SDS011;65009;44.762;21.516;2022-11-13T07:57:46;12.95;;;8.60;;
75486;SDS011;65009;44.762;21.516;2022-11-13T08:00:12;12.55;;;8.93;;
75486;SDS011;65009;44.762;21.516;2022-11-13T08:02:38;12.80;;;8.13;;
75486;SDS011;65009;44.762;21.516;2022-11-13T08:05:04;13.60;;;9.15;;
75486;SDS011;65009;44.762;21.516;2022-11-13T08:07:31;12.85;;;8.77;;
75486;SDS011;65009;44.762;21.516;2022-11-13T08:09:57;13.13;;;8.70;;
75486;SDS011;65009;44.762;21.516;2022-11-13T08:12:23;13.55;;;8.80;;
75486;SDS011;65009;44.762;21.516;2022-11-13T08:14:49;14.88;;;9.77;;
75486;SDS011;65009;44.762;21.516;2022-11-13T08:17:15;10.63;;;8.27;;
75486;SDS011;65009;44.762;21.516;2022-11-13T08:19:41;13.10;;;9.15;;
75486;SDS011;65009;44.762;21.516;2022-11-13T08:22:07;14.20;;;8.88;;
75486;SDS011;65009;44.762;21.516;2022-11-13T08:24:33;12.88;;;9.77;;
75486;SDS011;65009;44.762;21.516;2022-11-13T08:27:00;14.27;;;9.20;;
75486;SDS011;65009;44.762;21.516;2022-11-13T08:29:26;11.73;;;8.60;;
75486;SDS011;65009;44.762;21.516;2022-11-13T08:31:52;17.15;;;8.52;;
75486;SDS011;65009;44.762;21.516;2022-11-13T08:34:18;12.93;;;9.68;;
75486;SDS011;65009;44.762;21.516;2022-11-13T08:36:46;11.27;;;8.30;;
75486;SDS011;65009;44.762;21.516;2022-11-13T08:39:12;10.52;;;8.00;;
75486;SDS011;65009;44.762;21.516;2022-11-13T08:41:38;9.98;;;7.80;;
75486;SDS011;65009;44.762;21.516;2022-11-13T08:44:05;14.27;;;9.43;;
75486;SDS011;65009;44.762;21.516;2022-11-13T08:46:31;16.80;;;9.20;;
75486;SDS011;65009;44.762;21.516;2022-11-13T08:48:57;21.77;;;8.50;;
75486;SDS011;65009;44.762;21.516;2022-11-13T08:51:23;13.55;;;7.47;;
75486;SDS011;65009;44.762;21.516;2022-11-13T08:53:49;10.43;;;8.15;;
75486;SDS011;65009;44.762;21.516;2022-11-13T08:56:15;11.77;;;8.63;;
75486;SDS011;65009;44.762;21.516;2022-11-13T08:58:41;12.85;;;8.63;;
75486;SDS011;65009;44.762;21.516;2022-11-13T09:01:08;12.32;;;9.13;;
75486;SDS011;65009;44.762;21.516;2022-11-13T09:03:34;24.30;;;17.92;;
75486;SDS011;65009;44.762;21.516;2022-11-13T09:06:04;19.98;;;9.57;;
75486;SDS011;65009;44.762;21.516;2022-11-13T09:08:31;13.73;;;7.03;;
75486;SDS011;65009;44.762;21.516;2022-11-13T09:11:00;11.05;;;7.75;;
75486;SDS011;65009;44.762;21.516;2022-11-13T09:13:28;9.93;;;6.95;;
75486;SDS011;65009;44.762;21.516;2022-11-13T09:15:56;9.93;;;7.40;;
75486;SDS011;65009;44.762;21.516;2022-11-13T09:18:22;9.20;;;7.25;;
75486;SDS011;65009;44.762;21.516;2022-11-13T09:20:48;11.57;;;6.90;;
75486;SDS011;65009;44.762;21.516;2022-11-13T09:23:14;10.45;;;6.78;;
75486;SDS011;65009;44.762;21.516;2022-11-13T09:25:40;14.48;;;7.32;;
75486;SDS011;65009;44.762;21.516;2022-11-13T09:28:08;16.42;;;9.95;;
75486;SDS011;65009;44.762;21.516;2022-11-13T09:30:36;16.80;;;8.57;;
75486;SDS011;65009;44.762;21.516;2022-11-13T09:33:03;13.45;;;6.53;;
75486;SDS011;65009;44.762;21.516;2022-11-13T09:35:29;9.50;;;6.82;;
75486;SDS011;65009;44.762;21.516;2022-11-13T09:38:00;14.63;;;8.95;;
75486;SDS011;65009;44.762;21.516;2022-11-13T09:40:28;11.52;;;8.13;;
75486;SDS011;65009;44.762;21.516;2022-11-13T09:42:55;13.32;;;8.30;;
75486;SDS011;65009;44.762;21.516;2022-11-13T09:45:21;9.52;;;7.13;;
75486;SDS011;65009;44.762;21.516;2022-11-13T09:47:48;7.95;;;6.60;;
75486;SDS011;65009;44.762;21.516;2022-11-13T09:50:23;9.35;;;6.25;;
75486;SDS011;65009;44.762;21.516;2022-11-13T09:52:50;9.05;;;6.40;;
75486;SDS011;65009;44.762;21.516;2022-11-13T09:55:18;10.07;;;5.43;;
75486;SDS011;65009;44.762;21.516;2022-11-13T10:00:12;10.68;;;7.70;;
75486;SDS011;65009;44.762;21.516;2022-11-13T10:02:46;8.10;;;6.65;;
75486;SDS011;65009;44.762;21.516;2022-11-13T10:07:50;29.48;;;9.57;;
75486;SDS011;65009;44.762;21.516;2022-11-13T10:10:30;24.50;;;6.45;;
75486;SDS011;65009;44.762;21.516;2022-11-13T10:12:57;10.63;;;9.68;;
75486;SDS011;65009;44.762;21.516;2022-11-13T10:15:24;9.55;;;6.43;;
75486;SDS011;65009;44.762;21.516;2022-11-13T10:17:55;9.05;;;6.47;;
75486;SDS011;65009;44.762;21.516;2022-11-13T10:20:24;7.68;;;5.65;;
75486;SDS011;65009;44.762;21.516;2022-11-13T10:25:21;8.07;;;6.00;;
75486;SDS011;65009;44.762;21.516;2022-11-13T10:27:49;7.78;;;6.50;;
75486;SDS011;65009;44.762;21.516;2022-11-13T10:30:18;7.97;;;7.03;;
75486;SDS011;65009;44.762;21.516;2022-11-13T10:32:44;9.00;;;6.05;;
75486;SDS011;65009;44.762;21.516;2022-11-13T10:40:26;9.52;;;7.30;;
75486;SDS011;65009;44.762;21.516;2022-11-13T10:42:52;7.65;;;6.90;;
75486;SDS011;65009;44.762;21.516;2022-11-13T10:45:19;8.75;;;6.63;;
75486;SDS011;65009;44.762;21.516;2022-11-13T10:47:47;10.38;;;7.50;;
75486;SDS011;65009;44.762;21.516;2022-11-13T10:50:21;7.60;;;6.20;;
75486;SDS011;65009;44.762;21.516;2022-11-13T10:52:48;8.10;;;7.13;;
75486;SDS011;65009;44.762;21.516;2022-11-13T10:55:16;6.68;;;6.00;;
75486;SDS011;65009;44.762;21.516;2022-11-13T10:57:53;8.65;;;6.60;;
75486;SDS011;65009;44.762;21.516;2022-11-13T11:00:24;8.05;;;5.90;;
75486;SDS011;65009;44.762;21.516;2022-11-13T11:02:50;7.07;;;6.32;;
75486;SDS011;65009;44.762;21.516;2022-11-13T11:05:18;9.25;;;7.10;;
75486;SDS011;65009;44.762;21.516;2022-11-13T11:07:44;8.90;;;7.93;;
75486;SDS011;65009;44.762;21.516;2022-11-13T11:12:58;9.07;;;6.97;;
75486;SDS011;65009;44.762;21.516;2022-11-13T11:15:27;8.63;;;6.43;;
75486;SDS011;65009;44.762;21.516;2022-11-13T11:17:59;11.57;;;6.63;;
75486;SDS011;65009;44.762;21.516;2022-11-13T11:23:21;7.35;;;6.47;;
75486;SDS011;65009;44.762;21.516;2022-11-13T11:25:55;8.32;;;6.07;;
75486;SDS011;65009;44.762;21.516;2022-11-13T11:36:22;7.35;;;6.28;;
75486;SDS011;65009;44.762;21.516;2022-11-13T11:39:38;7.00;;;6.30;;
75486;SDS011;65009;44.762;21.516;2022-11-13T11:41:42;8.00;;;6.20;;
75486;SDS011;65009;44.762;21.516;2022-11-13T11:44:31;7.45;;;6.47;;
75486;SDS011;65009;44.762;21.516;2022-11-13T11:46:55;6.78;;;5.47;;
75486;SDS011;65009;44.762;21.516;2022-11-13T11:49:22;10.02;;;6.72;;
75486;SDS011;65009;44.762;21.516;2022-11-13T11:52:10;7.30;;;6.13;;
75486;SDS011;65009;44.762;21.516;2022-11-13T11:54:41;8.02;;;6.60;;
75486;SDS011;65009;44.762;21.516;2022-11-13T12:13:20;15.57;;;11.02;;
75486;SDS011;65009;44.762;21.516;2022-11-13T12:16:12;14.43;;;8.57;;
75486;SDS011;65009;44.762;21.516;2022-11-13T12:28:49;7.50;;;6.57;;
75486;SDS011;65009;44.762;21.516;2022-11-13T12:36:42;5.22;;;4.53;;
75486;SDS011;65009;44.762;21.516;2022-11-13T12:46:45;9.00;;;5.30;;
75486;SDS011;65009;44.762;21.516;2022-11-13T12:51:54;5.03;;;4.53;;
75486;SDS011;65009;44.762;21.516;2022-11-13T12:54:23;8.05;;;5.50;;
75486;SDS011;65009;44.762;21.516;2022-11-13T12:56:50;5.22;;;4.72;;
75486;SDS011;65009;44.762;21.516;2022-11-13T13:01:43;5.75;;;4.47;;
75486;SDS011;65009;44.762;21.516;2022-11-13T13:04:25;9.23;;;6.05;;
75486;SDS011;65009;44.762;21.516;2022-11-13T13:17:48;5.55;;;3.72;;
75486;SDS011;65009;44.762;21.516;2022-11-13T13:20:31;6.35;;;4.70;;
75486;SDS011;65009;44.762;21.516;2022-11-13T13:25:31;4.97;;;4.47;;
75486;SDS011;65009;44.762;21.516;2022-11-13T13:27:58;7.82;;;5.32;;
75486;SDS011;65009;44.762;21.516;2022-11-13T13:30:25;10.18;;;4.63;;
75486;SDS011;65009;44.762;21.516;2022-11-13T13:32:58;7.75;;;4.93;;
75486;SDS011;65009;44.762;21.516;2022-11-13T13:35:31;6.25;;;4.43;;
75486;SDS011;65009;44.762;21.516;2022-11-13T13:38:19;5.72;;;5.10;;
75486;SDS011;65009;44.762;21.516;2022-11-13T13:40:54;9.57;;;5.63;;
75486;SDS011;65009;44.762;21.516;2022-11-13T13:43:26;9.38;;;5.93;;
75486;SDS011;65009;44.762;21.516;2022-11-13T13:46:14;7.80;;;5.63;;
75486;SDS011;65009;44.762;21.516;2022-11-13T13:48:42;9.82;;;6.80;;
75486;SDS011;65009;44.762;21.516;2022-11-13T13:51:24;7.45;;;5.60;;
75486;SDS011;65009;44.762;21.516;2022-11-13T13:53:51;9.73;;;7.07;;
75486;SDS011;65009;44.762;21.516;2022-11-13T13:56:18;32.10;;;17.00;;
75486;SDS011;65009;44.762;21.516;2022-11-13T13:58:45;21.38;;;11.75;;
75486;SDS011;65009;44.762;21.516;2022-11-13T14:01:13;18.02;;;10.10;;
75486;SDS011;65009;44.762;21.516;2022-11-13T14:03:40;26.98;;;15.93;;
75486;SDS011;65009;44.762;21.516;2022-11-13T14:06:06;14.10;;;8.70;;
75486;SDS011;65009;44.762;21.516;2022-11-13T14:08:33;8.73;;;6.65;;
75486;SDS011;65009;44.762;21.516;2022-11-13T14:11:01;11.25;;;7.35;;
75486;SDS011;65009;44.762;21.516;2022-11-13T14:13:28;10.63;;;7.45;;
75486;SDS011;65009;44.762;21.516;2022-11-13T14:18:27;10.55;;;7.07;;
75486;SDS011;65009;44.762;21.516;2022-11-13T14:20:54;26.48;;;13.40;;
75486;SDS011;65009;44.762;21.516;2022-11-13T14:23:28;18.67;;;11.77;;
75486;SDS011;65009;44.762;21.516;2022-11-13T14:25:57;18.42;;;9.57;;
75486;SDS011;65009;44.762;21.516;2022-11-13T14:28:24;16.08;;;10.15;;
75486;SDS011;65009;44.762;21.516;2022-11-13T14:31:12;13.80;;;8.80;;
75486;SDS011;65009;44.762;21.516;2022-11-13T14:33:40;18.45;;;12.25;;
75486;SDS011;65009;44.762;21.516;2022-11-13T14:36:08;14.07;;;9.45;;
75486;SDS011;65009;44.762;21.516;2022-11-13T14:38:35;52.88;;;26.75;;
75486;SDS011;65009;44.762;21.516;2022-11-13T14:41:05;41.38;;;20.92;;
75486;SDS011;65009;44.762;21.516;2022-11-13T14:43:32;20.65;;;12.75;;
75486;SDS011;65009;44.762;21.516;2022-11-13T14:45:59;7.50;;;5.82;;
75486;SDS011;65009;44.762;21.516;2022-11-13T14:48:29;7.68;;;5.50;;
75486;SDS011;65009;44.762;21.516;2022-11-13T14:51:03;14.45;;;8.05;;
75486;SDS011;65009;44.762;21.516;2022-11-13T14:53:36;17.45;;;9.30;;
75486;SDS011;65009;44.762;21.516;2022-11-13T14:56:07;19.70;;;11.68;;
75486;SDS011;65009;44.762;21.516;2022-11-13T14:58:34;12.85;;;7.20;;
75486;SDS011;65009;44.762;21.516;2022-11-13T15:01:20;11.20;;;8.02;;
75486;SDS011;65009;44.762;21.516;2022-11-13T15:03:47;22.60;;;14.52;;
75486;SDS011;65009;44.762;21.516;2022-11-13T15:06:18;25.10;;;16.13;;
75486;SDS011;65009;44.762;21.516;2022-11-13T15:08:45;25.92;;;16.50;;
75486;SDS011;65009;44.762;21.516;2022-11-13T15:11:12;26.83;;;14.18;;
75486;SDS011;65009;44.762;21.516;2022-11-13T15:13:39;19.25;;;12.35;;
75486;SDS011;65009;44.762;21.516;2022-11-13T15:16:05;16.60;;;10.50;;
75486;SDS011;65009;44.762;21.516;2022-11-13T15:18:31;13.80;;;9.30;;
75486;SDS011;65009;44.762;21.516;2022-11-13T15:20:58;41.20;;;20.80;;
75486;SDS011;65009;44.762;21.516;2022-11-13T15:23:24;14.50;;;7.28;;
75486;SDS011;65009;44.762;21.516;2022-11-13T15:25:53;10.30;;;7.13;;
75486;SDS011;65009;44.762;21.516;2022-11-13T15:28:19;38.25;;;18.10;;
75486;SDS011;65009;44.762;21.516;2022-11-13T15:30:45;18.00;;;12.60;;
75486;SDS011;65009;44.762;21.516;2022-11-13T15:33:11;33.95;;;22.65;;
75486;SDS011;65009;44.762;21.516;2022-11-13T15:35:41;48.70;;;27.05;;
75486;SDS011;65009;44.762;21.516;2022-11-13T15:38:11;15.52;;;9.85;;
75486;SDS011;65009;44.762;21.516;2022-11-13T15:40:37;22.90;;;16.50;;
75486;SDS011;65009;44.762;21.516;2022-11-13T15:43:04;31.90;;;23.00;;
75486;SDS011;65009;44.762;21.516;2022-11-13T15:45:30;27.45;;;14.93;;
75486;SDS011;65009;44.762;21.516;2022-11-13T15:47:56;21.73;;;14.48;;
75486;SDS011;65009;44.762;21.516;2022-11-13T15:50:23;14.43;;;10.85;;